createdAt,value
2019-05-28T00:00:02.350Z,13.52
2019-05-28T00:00:55.690Z,13.53
2019-05-28T00:01:55.674Z,13.60
2019-05-28T00:02:55.656Z,13.54
2019-05-28T00:03:55.619Z,13.60
2019-05-28T00:04:55.604Z,13.56
2019-05-28T00:05:55.584Z,13.56
2019-05-28T00:06:55.566Z,13.64
2019-05-28T00:07:55.550Z,13.63
2019-05-28T00:08:55.533Z,13.49
2019-05-28T00:09:55.516Z,13.50
2019-05-28T00:10:55.499Z,13.45
2019-05-28T00:11:55.482Z,13.44
2019-05-28T00:12:55.477Z,13.42
2019-05-28T00:13:55.452Z,13.49
2019-05-28T00:14:55.434Z,13.46
2019-05-28T00:15:55.419Z,13.54
2019-05-28T00:16:55.398Z,13.60
2019-05-28T00:17:55.382Z,13.60
2019-05-28T00:18:55.366Z,13.69
2019-05-28T00:19:55.347Z,13.75
2019-05-28T00:20:55.331Z,13.79
2019-05-28T00:21:55.314Z,13.77
2019-05-28T00:22:55.299Z,13.77
2019-05-28T00:23:55.284Z,13.74
2019-05-28T00:24:55.264Z,13.74
2019-05-28T00:25:55.249Z,13.74
2019-05-28T00:26:55.228Z,13.72
2019-05-28T00:27:55.215Z,13.63
2019-05-28T00:28:55.196Z,13.60
2019-05-28T00:29:55.182Z,13.49
2019-05-28T00:30:55.165Z,13.45
2019-05-28T00:31:55.145Z,13.36
2019-05-28T00:32:55.130Z,13.36
2019-05-28T00:33:55.112Z,13.45
2019-05-28T00:34:55.099Z,13.41
2019-05-28T00:35:55.083Z,13.39
2019-05-28T00:36:55.264Z,13.45
2019-05-28T00:37:55.049Z,13.54
2019-05-28T00:38:55.032Z,13.59
2019-05-28T00:39:55.012Z,13.57
2019-05-28T00:40:54.998Z,13.60
2019-05-28T00:41:54.979Z,13.64
2019-05-28T00:42:54.963Z,13.63
2019-05-28T00:43:54.949Z,13.71
2019-05-28T00:44:54.932Z,13.71
2019-05-28T00:45:54.915Z,13.57
2019-05-28T00:46:54.895Z,13.64
2019-05-28T00:47:54.878Z,13.64
2019-05-28T00:48:54.865Z,13.52
2019-05-28T00:49:54.848Z,13.46
2019-05-28T00:50:54.830Z,13.35
2019-05-28T00:51:54.811Z,13.20
2019-05-28T00:52:54.794Z,13.10
2019-05-28T00:53:54.779Z,13.12
2019-05-28T00:54:54.760Z,13.15
2019-05-28T00:55:54.745Z,13.18
2019-05-28T00:56:54.754Z,13.18
2019-05-28T00:57:54.713Z,13.15
2019-05-28T00:58:54.692Z,13.02
2019-05-28T00:59:54.678Z,13.12
2019-05-28T01:00:54.660Z,12.89
2019-05-28T01:01:54.642Z,12.95
2019-05-28T01:02:54.623Z,12.94
2019-05-28T01:03:54.606Z,12.97
2019-05-28T01:04:54.618Z,12.97
2019-05-28T01:05:54.573Z,12.90
2019-05-28T01:06:54.567Z,12.93
2019-05-28T01:07:54.536Z,12.90
2019-05-28T01:08:54.528Z,12.90
2019-05-28T01:09:54.503Z,12.89
2019-05-28T01:10:54.486Z,12.90
2019-05-28T01:11:54.470Z,12.90
2019-05-28T01:12:54.450Z,12.95
2019-05-28T01:13:54.433Z,12.97
2019-05-28T01:14:54.417Z,12.95
2019-05-28T01:15:54.398Z,12.94
2019-05-28T01:16:54.381Z,12.97
2019-05-28T01:17:54.363Z,12.89
2019-05-28T01:18:54.347Z,12.97
2019-05-28T01:19:54.332Z,12.94
2019-05-28T01:20:54.313Z,12.85
2019-05-28T01:21:54.296Z,12.90
2019-05-28T01:22:54.278Z,12.83
2019-05-28T01:23:54.262Z,12.83
2019-05-28T01:24:54.242Z,12.85
2019-05-28T01:25:54.226Z,12.97
2019-05-28T01:26:54.207Z,12.89
2019-05-28T01:27:54.192Z,12.93
2019-05-28T01:28:54.176Z,12.94
2019-05-28T01:29:54.159Z,12.93
2019-05-28T01:31:00.092Z,12.98
2019-05-28T01:31:54.127Z,12.89
2019-05-28T01:32:54.107Z,12.98
2019-05-28T01:33:54.101Z,12.87
2019-05-28T01:34:54.069Z,12.93
2019-05-28T01:35:54.053Z,12.89
2019-05-28T01:36:54.035Z,12.77
2019-05-28T01:37:54.033Z,12.82
2019-05-28T01:38:54.002Z,12.77
2019-05-28T01:39:53.986Z,12.82
2019-05-28T01:40:53.966Z,12.86
2019-05-28T01:41:53.949Z,12.80
2019-05-28T01:42:53.931Z,12.82
2019-05-28T01:43:53.913Z,12.83
2019-05-28T01:44:53.896Z,12.82
2019-05-28T01:45:53.884Z,12.76
2019-05-28T01:46:53.865Z,12.85
2019-05-28T01:47:57.289Z,12.76
2019-05-28T01:48:53.868Z,12.82
2019-05-28T01:49:53.817Z,12.79
2019-05-28T01:50:53.795Z,12.83
2019-05-28T01:51:53.777Z,12.83
2019-05-28T01:52:53.758Z,12.80
2019-05-28T01:53:53.745Z,12.82
2019-05-28T01:54:53.722Z,12.75
2019-05-28T01:55:53.711Z,12.75
2019-05-28T01:56:53.689Z,12.83
2019-05-28T01:57:53.672Z,12.80
2019-05-28T01:58:53.660Z,12.79
2019-05-28T01:59:53.640Z,12.68
2019-05-28T02:01:09.296Z,12.65
2019-05-28T02:01:53.601Z,12.68
2019-05-28T02:02:53.594Z,12.72
2019-05-28T02:03:53.569Z,12.62
2019-05-28T02:04:53.574Z,12.60
2019-05-28T02:05:53.540Z,12.61
2019-05-28T02:06:53.516Z,12.53
2019-05-28T02:07:53.501Z,12.52
2019-05-28T02:08:53.483Z,12.64
2019-05-28T02:09:53.464Z,12.57
2019-05-28T02:10:53.449Z,12.55
2019-05-28T02:11:53.429Z,12.53
2019-05-28T02:12:53.411Z,12.67
2019-05-28T02:13:53.394Z,12.58
2019-05-28T02:14:53.376Z,12.61
2019-05-28T02:15:53.362Z,12.60
2019-05-28T02:16:53.341Z,12.57
2019-05-28T02:17:53.327Z,12.65
2019-05-28T02:18:53.306Z,12.61
2019-05-28T02:19:53.295Z,12.64
2019-05-28T02:20:53.272Z,12.60
2019-05-28T02:21:53.255Z,12.62
2019-05-28T02:22:53.239Z,12.57
2019-05-28T02:23:53.219Z,12.60
2019-05-28T02:24:53.203Z,12.60
2019-05-28T02:25:53.187Z,12.61
2019-05-28T02:26:53.172Z,12.57
2019-05-28T02:27:53.156Z,12.58
2019-05-28T02:28:53.134Z,12.52
2019-05-28T02:29:53.115Z,12.47
2019-05-28T02:30:53.098Z,12.58
2019-05-28T02:31:53.080Z,12.65
2019-05-28T02:32:53.070Z,12.50
2019-05-28T02:33:53.047Z,12.60
2019-05-28T02:34:53.032Z,12.69
2019-05-28T02:35:53.014Z,12.64
2019-05-28T02:36:52.995Z,12.61
2019-05-28T02:37:52.979Z,12.60
2019-05-28T02:38:53.040Z,12.67
2019-05-28T02:39:52.943Z,12.72
2019-05-28T02:40:52.926Z,12.67
2019-05-28T02:41:52.953Z,12.62
2019-05-28T02:42:52.890Z,12.57
2019-05-28T02:43:52.874Z,12.65
2019-05-28T02:44:52.856Z,12.68
2019-05-28T02:45:52.839Z,12.58
2019-05-28T02:46:52.821Z,12.58
2019-05-28T02:47:52.804Z,12.58
2019-05-28T02:48:52.789Z,12.61
2019-05-28T02:49:52.768Z,12.49
2019-05-28T02:50:52.751Z,12.62
2019-05-28T02:51:52.732Z,12.57
2019-05-28T02:52:52.715Z,12.50
2019-05-28T02:53:52.710Z,12.50
2019-05-28T02:54:52.683Z,12.52
2019-05-28T02:55:52.690Z,12.55
2019-05-28T02:56:52.650Z,12.46
2019-05-28T02:57:52.641Z,12.49
2019-05-28T02:58:52.616Z,12.49
2019-05-28T02:59:52.597Z,12.58
2019-05-28T03:00:52.576Z,12.50
2019-05-28T03:01:52.563Z,12.49
2019-05-28T03:02:52.544Z,12.50
2019-05-28T03:03:52.527Z,12.44
2019-05-28T03:04:52.510Z,12.37
2019-05-28T03:05:52.507Z,12.43
2019-05-28T03:06:52.471Z,12.37
2019-05-28T03:07:55.442Z,12.44
2019-05-28T03:08:52.446Z,12.49
2019-05-28T03:09:52.421Z,12.50
2019-05-28T03:11:02.292Z,12.46
2019-05-28T03:11:52.386Z,12.49
2019-05-28T03:12:52.391Z,12.50
2019-05-28T03:13:52.422Z,12.53
2019-05-28T03:14:52.333Z,12.47
2019-05-28T03:15:52.326Z,12.49
2019-05-28T03:16:52.301Z,12.50
2019-05-28T03:17:52.280Z,12.49
2019-05-28T03:18:52.276Z,12.49
2019-05-28T03:19:52.246Z,12.46
2019-05-28T03:20:52.230Z,12.50
2019-05-28T03:21:52.274Z,12.53
2019-05-28T03:22:52.195Z,12.46
2019-05-28T03:23:52.176Z,12.50
2019-05-28T03:24:52.160Z,12.49
2019-05-28T03:25:52.142Z,12.49
2019-05-28T03:26:52.126Z,12.42
2019-05-28T03:27:52.145Z,12.42
2019-05-28T03:28:52.091Z,12.39
2019-05-28T03:29:52.091Z,12.44
2019-05-28T03:30:52.060Z,12.40
2019-05-28T03:32:07.161Z,12.44
2019-05-28T03:32:52.023Z,12.42
2019-05-28T03:33:52.003Z,12.37
2019-05-28T03:34:51.986Z,12.50
2019-05-28T03:35:51.972Z,12.43
2019-05-28T03:36:51.951Z,12.47
2019-05-28T03:37:51.936Z,12.43
2019-05-28T03:38:51.915Z,12.31
2019-05-28T03:39:51.897Z,12.40
2019-05-28T03:40:51.886Z,12.42
2019-05-28T03:41:51.864Z,12.43
2019-05-28T03:42:51.847Z,12.32
2019-05-28T03:43:51.831Z,12.47
2019-05-28T03:44:51.811Z,12.32
2019-05-28T03:45:51.795Z,12.44
2019-05-28T03:46:51.776Z,12.32
2019-05-28T03:47:51.762Z,12.44
2019-05-28T03:48:51.743Z,12.43
2019-05-28T03:49:51.724Z,12.43
2019-05-28T03:50:51.707Z,12.44
2019-05-28T03:51:51.697Z,12.46
2019-05-28T03:52:51.676Z,12.49
2019-05-28T03:53:51.672Z,12.50
2019-05-28T03:54:51.638Z,12.53
2019-05-28T03:55:51.620Z,12.47
2019-05-28T03:56:51.630Z,12.46
2019-05-28T03:57:51.585Z,12.52
2019-05-28T03:58:51.567Z,12.52
2019-05-28T03:59:51.551Z,12.47
2019-05-28T04:00:51.550Z,12.53
2019-05-28T04:01:51.516Z,12.47
2019-05-28T04:02:51.497Z,12.57
2019-05-28T04:03:51.480Z,12.49
2019-05-28T04:04:51.463Z,12.46
2019-05-28T04:05:51.446Z,12.49
2019-05-28T04:06:51.428Z,12.49
2019-05-28T04:07:51.417Z,12.50
2019-05-28T04:08:51.395Z,12.55
2019-05-28T04:09:51.383Z,12.49
2019-05-28T04:10:51.358Z,12.62
2019-05-28T04:11:51.341Z,12.61
2019-05-28T04:12:51.328Z,12.62
2019-05-28T04:13:51.315Z,12.69
2019-05-28T04:14:51.292Z,12.65
2019-05-28T04:15:51.275Z,12.60
2019-05-28T04:16:51.268Z,12.64
2019-05-28T04:17:51.268Z,12.55
2019-05-28T04:18:51.226Z,12.57
2019-05-28T04:19:51.203Z,12.61
2019-05-28T04:20:51.186Z,12.64
2019-05-28T04:21:51.194Z,12.60
2019-05-28T04:22:51.152Z,12.69
2019-05-28T04:23:51.134Z,12.65
2019-05-28T04:24:51.187Z,12.68
2019-05-28T04:25:51.103Z,12.49
2019-05-28T04:26:51.098Z,12.58
2019-05-28T04:27:51.079Z,12.62
2019-05-28T04:28:51.051Z,12.64
2019-05-28T04:29:51.135Z,12.62
2019-05-28T04:30:51.015Z,12.62
2019-05-28T04:31:50.997Z,12.58
2019-05-28T04:32:50.982Z,12.67
2019-05-28T04:33:50.962Z,12.58
2019-05-28T04:34:50.945Z,12.60
2019-05-28T04:35:50.928Z,12.69
2019-05-28T04:36:50.914Z,12.62
2019-05-28T04:37:50.897Z,12.65
2019-05-28T04:38:50.880Z,12.71
2019-05-28T04:39:50.911Z,12.75
2019-05-28T04:40:50.862Z,12.67
2019-05-28T04:41:50.832Z,12.71
2019-05-28T04:42:50.811Z,12.68
2019-05-28T04:43:50.819Z,12.68
2019-05-28T04:44:50.834Z,12.68
2019-05-28T04:45:50.758Z,12.75
2019-05-28T04:46:50.755Z,12.65
2019-05-28T04:47:50.725Z,12.76
2019-05-28T04:48:50.708Z,12.75
2019-05-28T04:49:50.688Z,12.80
2019-05-28T04:50:50.705Z,12.87
2019-05-28T04:51:50.654Z,12.90
2019-05-28T04:52:50.646Z,12.89
2019-05-28T04:53:50.620Z,12.93
2019-05-28T04:54:50.606Z,12.93
2019-05-28T04:55:50.585Z,12.87
2019-05-28T04:56:50.573Z,12.89
2019-05-28T04:57:50.552Z,12.86
2019-05-28T04:58:50.537Z,12.82
2019-05-28T04:59:50.518Z,12.82
2019-05-28T05:00:50.503Z,12.87
2019-05-28T05:01:50.484Z,12.87
2019-05-28T05:02:59.257Z,12.87
2019-05-28T05:03:50.473Z,12.85
2019-05-28T05:04:50.436Z,12.97
2019-05-28T05:05:50.429Z,12.94
2019-05-28T05:06:50.401Z,13.00
2019-05-28T05:07:50.382Z,12.97
2019-05-28T05:08:50.366Z,13.04
2019-05-28T05:09:50.349Z,13.07
2019-05-28T05:10:50.334Z,13.16
2019-05-28T05:11:50.314Z,13.13
2019-05-28T05:12:50.299Z,13.19
2019-05-28T05:13:50.283Z,13.16
2019-05-28T05:14:50.300Z,13.20
2019-05-28T05:15:50.248Z,13.20
2019-05-28T05:16:50.241Z,13.30
2019-05-28T05:17:50.214Z,13.22
2019-05-28T05:18:50.200Z,13.27
2019-05-28T05:19:50.180Z,13.38
2019-05-28T05:20:50.167Z,13.41
2019-05-28T05:21:50.151Z,13.45
2019-05-28T05:22:50.137Z,13.44
2019-05-28T05:23:50.115Z,13.42
2019-05-28T05:24:50.103Z,13.50
2019-05-28T05:25:50.086Z,13.52
2019-05-28T05:26:52.904Z,13.54
2019-05-28T05:27:50.049Z,13.53
2019-05-28T05:28:50.034Z,13.53
2019-05-28T05:29:50.016Z,13.57
2019-05-28T05:30:50.007Z,13.54
2019-05-28T05:31:49.984Z,13.52
2019-05-28T05:32:49.972Z,13.59
2019-05-28T05:33:49.951Z,13.64
2019-05-28T05:34:49.939Z,13.59
2019-05-28T05:35:49.918Z,13.59
2019-05-28T05:36:49.903Z,13.53
2019-05-28T05:37:49.889Z,13.53
2019-05-28T05:38:49.872Z,13.54
2019-05-28T05:39:49.901Z,13.61
2019-05-28T05:40:49.840Z,13.64
2019-05-28T05:41:49.822Z,13.61
2019-05-28T05:42:49.805Z,13.56
2019-05-28T05:43:49.789Z,13.63
2019-05-28T05:44:49.771Z,13.74
2019-05-28T05:45:49.755Z,13.75
2019-05-28T05:46:49.747Z,13.86
2019-05-28T05:47:49.725Z,13.93
2019-05-28T05:48:49.708Z,14.05
2019-05-28T05:49:49.693Z,14.08
2019-05-28T05:50:49.676Z,14.17
2019-05-28T05:51:49.664Z,14.32
2019-05-28T05:52:49.647Z,14.35
2019-05-28T05:53:49.629Z,14.50
2019-05-28T05:54:49.619Z,14.54
2019-05-28T05:55:49.599Z,14.63
2019-05-28T05:56:49.583Z,14.65
2019-05-28T05:57:49.570Z,14.86
2019-05-28T05:58:49.555Z,15.07
2019-05-28T05:59:49.552Z,15.07
2019-05-28T06:00:49.527Z,15.19
2019-05-28T06:01:49.510Z,15.24
2019-05-28T06:02:49.523Z,15.31
2019-05-28T06:03:49.503Z,15.34
2019-05-28T06:04:49.465Z,15.37
2019-05-28T06:05:49.453Z,15.51
2019-05-28T06:06:49.468Z,15.65
2019-05-28T06:07:49.430Z,15.65
2019-05-28T06:08:49.406Z,15.69
2019-05-28T06:09:49.395Z,15.55
2019-05-28T06:10:49.378Z,15.62
2019-05-28T06:11:49.363Z,15.89
2019-05-28T06:12:49.358Z,16.01
2019-05-28T06:13:49.336Z,16.53
2019-05-28T06:14:49.331Z,16.87
2019-05-28T06:15:49.312Z,16.82
2019-05-28T06:16:49.325Z,16.87
2019-05-28T06:17:49.290Z,17.00
2019-05-28T06:18:49.282Z,17.45
2019-05-28T06:19:49.265Z,17.59
2019-05-28T06:20:49.263Z,17.92
2019-05-28T06:21:49.288Z,18.71
2019-05-28T06:22:49.243Z,19.40
2019-05-28T06:23:49.229Z,19.24
2019-05-28T06:24:49.219Z,19.12
2019-05-28T06:25:49.209Z,18.81
2019-05-28T06:26:49.204Z,18.71
2019-05-28T06:27:49.202Z,18.80
2019-05-28T06:28:49.183Z,18.80
2019-05-28T06:29:49.172Z,18.63
2019-05-28T06:30:49.161Z,18.40
2019-05-28T06:31:49.157Z,18.35
2019-05-28T06:32:49.146Z,18.19
2019-05-28T06:33:56.625Z,18.38
2019-05-28T06:34:49.120Z,18.56
2019-05-28T06:35:49.113Z,18.63
2019-05-28T06:36:49.103Z,18.73
2019-05-28T06:37:49.104Z,18.66
2019-05-28T06:38:49.100Z,18.34
2019-05-28T06:39:49.089Z,18.10
2019-05-28T06:40:49.082Z,17.86
2019-05-28T06:41:49.054Z,17.72
2019-05-28T06:42:49.053Z,17.77
2019-05-28T06:43:49.029Z,17.60
2019-05-28T06:44:49.023Z,17.68
2019-05-28T06:45:49.014Z,17.55
2019-05-28T06:46:48.994Z,17.64
2019-05-28T06:47:48.982Z,17.63
2019-05-28T06:48:48.970Z,17.65
2019-05-28T06:49:48.960Z,17.44
2019-05-28T06:50:48.944Z,17.39
2019-05-28T06:51:48.941Z,17.29
2019-05-28T06:52:48.939Z,17.41
2019-05-28T06:53:48.912Z,17.39
2019-05-28T06:54:48.900Z,17.42
2019-05-28T06:55:48.885Z,17.48
2019-05-28T06:56:48.875Z,17.37
2019-05-28T06:57:48.920Z,17.34
2019-05-28T06:58:48.856Z,17.49
2019-05-28T06:59:48.835Z,17.60
2019-05-28T07:00:48.826Z,17.64
2019-05-28T07:01:48.807Z,17.74
2019-05-28T07:02:48.828Z,17.42
2019-05-28T07:03:48.785Z,17.36
2019-05-28T07:04:48.768Z,17.42
2019-05-28T07:06:05.114Z,17.36
2019-05-28T07:06:48.746Z,17.34
2019-05-28T07:07:48.741Z,17.39
2019-05-28T07:08:48.726Z,17.42
2019-05-28T07:09:48.710Z,17.41
2019-05-28T07:10:57.709Z,17.26
2019-05-28T07:11:48.734Z,17.27
2019-05-28T07:12:48.669Z,17.24
2019-05-28T07:13:48.660Z,17.42
2019-05-28T07:14:48.656Z,17.41
2019-05-28T07:15:48.638Z,17.33
2019-05-28T07:16:53.249Z,17.54
2019-05-28T07:17:48.607Z,17.52
2019-05-28T07:18:48.589Z,17.48
2019-05-28T07:19:48.578Z,17.42
2019-05-28T07:20:48.609Z,17.18
2019-05-28T07:21:48.602Z,17.19
2019-05-28T07:22:48.536Z,17.26
2019-05-28T07:23:48.523Z,17.08
2019-05-28T07:24:48.516Z,16.98
2019-05-28T07:25:48.499Z,16.87
2019-05-28T07:26:48.493Z,16.90
2019-05-28T07:27:48.511Z,16.90
2019-05-28T07:28:48.490Z,16.90
2019-05-28T07:29:48.457Z,16.98
2019-05-28T07:30:48.487Z,16.89
2019-05-28T07:31:48.437Z,16.81
2019-05-28T07:32:48.467Z,16.68
2019-05-28T07:33:48.438Z,16.60
2019-05-28T07:34:48.372Z,16.41
2019-05-28T07:35:48.357Z,16.21
2019-05-28T07:36:48.345Z,16.12
2019-05-28T07:37:48.403Z,16.08
2019-05-28T07:38:48.321Z,16.02
2019-05-28T07:39:48.299Z,16.15
2019-05-28T07:40:48.288Z,16.08
2019-05-28T07:41:48.271Z,15.99
2019-05-28T07:42:48.259Z,16.04
2019-05-28T07:43:48.246Z,15.98
2019-05-28T07:44:48.265Z,16.13
2019-05-28T07:45:48.217Z,16.17
2019-05-28T07:46:48.200Z,16.16
2019-05-28T07:47:48.181Z,16.15
2019-05-28T07:48:48.180Z,16.13
2019-05-28T07:49:48.152Z,16.12
2019-05-28T07:50:48.139Z,16.43
2019-05-28T07:51:48.133Z,16.76
2019-05-28T07:52:48.125Z,17.00
2019-05-28T07:53:48.098Z,17.05
2019-05-28T07:54:48.082Z,17.14
2019-05-28T07:55:48.082Z,17.08
2019-05-28T07:56:48.056Z,17.23
2019-05-28T07:57:48.048Z,17.11
2019-05-28T07:58:48.030Z,17.31
2019-05-28T07:59:48.020Z,17.39
2019-05-28T08:00:48.006Z,17.39
2019-05-28T08:01:47.991Z,17.19
2019-05-28T08:02:47.978Z,17.24
2019-05-28T08:03:47.969Z,17.21
2019-05-28T08:04:48.049Z,17.33
2019-05-28T08:05:47.938Z,17.36
2019-05-28T08:06:54.762Z,17.23
2019-05-28T08:07:47.910Z,17.18
2019-05-28T08:08:47.903Z,17.19
2019-05-28T08:09:47.901Z,17.23
2019-05-28T08:10:47.906Z,17.46
2019-05-28T08:11:47.867Z,17.59
2019-05-28T08:12:47.852Z,17.55
2019-05-28T08:13:47.874Z,17.59
2019-05-28T08:14:47.824Z,17.59
2019-05-28T08:15:47.805Z,17.59
2019-05-28T08:16:52.879Z,17.68
2019-05-28T08:17:48.230Z,17.74
2019-05-28T08:18:47.768Z,17.86
2019-05-28T08:19:47.754Z,17.95
2019-05-28T08:20:47.745Z,18.08
2019-05-28T08:21:47.729Z,17.93
2019-05-28T08:22:47.718Z,18.10
2019-05-28T08:23:47.704Z,17.98
2019-05-28T08:24:47.692Z,17.85
2019-05-28T08:25:48.224Z,17.70
2019-05-28T08:26:47.666Z,17.63
2019-05-28T08:27:47.655Z,17.60
2019-05-28T08:28:47.640Z,17.77
2019-05-28T08:29:47.628Z,17.85
2019-05-28T08:30:47.624Z,17.86
2019-05-28T08:31:47.603Z,17.82
2019-05-28T08:32:47.588Z,17.90
2019-05-28T08:33:47.580Z,18.08
2019-05-28T08:35:02.129Z,18.20
2019-05-28T08:35:47.553Z,18.44
2019-05-28T08:37:04.437Z,18.58
2019-05-28T08:37:47.527Z,18.66
2019-05-28T08:38:47.518Z,18.84
2019-05-28T08:39:47.503Z,18.71
2019-05-28T08:40:47.490Z,18.48
2019-05-28T08:41:47.480Z,18.48
2019-05-28T08:42:47.468Z,18.69
2019-05-28T08:43:47.448Z,18.69
2019-05-28T08:44:47.435Z,18.71
2019-05-28T08:45:47.457Z,18.59
2019-05-28T08:46:47.412Z,18.55
2019-05-28T08:47:47.399Z,18.44
2019-05-28T08:48:47.389Z,18.23
2019-05-28T08:49:47.473Z,17.97
2019-05-28T08:50:47.361Z,17.98
2019-05-28T08:51:47.349Z,17.92
2019-05-28T08:52:47.424Z,17.97
2019-05-28T08:53:47.327Z,17.82
2019-05-28T08:54:50.565Z,17.83
2019-05-28T08:55:47.300Z,17.72
2019-05-28T08:56:47.286Z,17.75
2019-05-28T08:57:47.269Z,17.72
2019-05-28T08:58:47.255Z,17.79
2019-05-28T08:59:47.242Z,17.79
2019-05-28T09:00:47.236Z,17.70
2019-05-28T09:01:47.216Z,17.49
2019-05-28T09:02:47.202Z,17.71
2019-05-28T09:03:47.193Z,17.75
2019-05-28T09:04:47.175Z,17.71
2019-05-28T09:05:47.167Z,17.82
2019-05-28T09:06:47.151Z,17.82
2019-05-28T09:07:47.139Z,18.04
2019-05-28T09:08:47.122Z,18.14
2019-05-28T09:09:47.113Z,18.27
2019-05-28T09:10:47.113Z,18.32
2019-05-28T09:11:47.082Z,18.11
2019-05-28T09:12:47.069Z,18.00
2019-05-28T09:13:47.054Z,18.10
2019-05-28T09:14:55.773Z,17.97
2019-05-28T09:15:47.027Z,18.10
2019-05-28T09:16:47.020Z,17.93
2019-05-28T09:17:47.082Z,17.87
2019-05-28T09:18:46.990Z,17.80
2019-05-28T09:19:46.976Z,17.75
2019-05-28T09:20:46.990Z,17.75
2019-05-28T09:21:46.973Z,17.72
2019-05-28T09:22:46.944Z,17.60
2019-05-28T09:23:46.927Z,17.52
2019-05-28T09:24:46.912Z,17.51
2019-05-28T09:25:46.906Z,17.49
2019-05-28T09:26:46.886Z,17.63
2019-05-28T09:27:46.882Z,17.65
2019-05-28T09:28:46.872Z,17.56
2019-05-28T09:29:46.846Z,17.60
2019-05-28T09:30:46.832Z,17.79
2019-05-28T09:31:46.821Z,17.87
2019-05-28T09:32:46.825Z,17.98
2019-05-28T09:33:46.795Z,18.00
2019-05-28T09:34:46.785Z,18.20
2019-05-28T09:36:03.781Z,18.16
2019-05-28T09:36:46.757Z,18.26
2019-05-28T09:37:46.745Z,18.51
2019-05-28T09:38:46.734Z,18.56
2019-05-28T09:39:46.799Z,18.51
2019-05-28T09:40:50.670Z,18.66
2019-05-28T09:41:46.700Z,18.81
2019-05-28T09:42:46.727Z,18.96
2019-05-28T09:43:46.703Z,18.92
2019-05-28T09:44:46.665Z,18.99
2019-05-28T09:45:46.714Z,19.19
2019-05-28T09:46:46.644Z,19.33
2019-05-28T09:47:46.631Z,19.30
2019-05-28T09:48:46.620Z,19.29
2019-05-28T09:49:46.612Z,19.33
2019-05-28T09:50:46.644Z,18.96
2019-05-28T09:51:46.583Z,18.71
2019-05-28T09:52:54.473Z,18.74
2019-05-28T09:53:46.559Z,18.87
2019-05-28T09:54:46.625Z,18.98
2019-05-28T09:55:46.539Z,18.89
2019-05-28T09:56:46.569Z,18.81
2019-05-28T09:57:48.067Z,18.75
2019-05-28T09:58:46.503Z,18.56
2019-05-28T09:59:46.493Z,18.45
2019-05-28T10:00:57.559Z,18.53
2019-05-28T10:01:46.481Z,18.35
2019-05-28T10:02:46.463Z,18.32
2019-05-28T10:03:46.439Z,18.16
2019-05-28T10:04:49.907Z,17.56
2019-05-28T10:05:58.610Z,17.21
2019-05-28T10:06:46.403Z,16.83
2019-05-28T10:07:46.390Z,16.73
2019-05-28T10:08:46.378Z,16.78
2019-05-28T10:09:46.370Z,16.68
2019-05-28T10:10:46.353Z,16.78
2019-05-28T10:11:46.343Z,16.64
2019-05-28T10:12:46.325Z,16.72
2019-05-28T10:13:46.316Z,16.86
2019-05-28T10:14:46.297Z,16.75
2019-05-28T10:15:46.300Z,16.79
2019-05-28T10:16:46.272Z,16.91
2019-05-28T10:17:46.259Z,16.98
2019-05-28T10:18:46.251Z,17.05
2019-05-28T10:19:46.234Z,17.11
2019-05-28T10:20:46.225Z,17.04
2019-05-28T10:21:46.232Z,17.00
2019-05-28T10:22:46.201Z,16.91
2019-05-28T10:23:46.196Z,16.76
2019-05-28T10:24:46.196Z,16.61
2019-05-28T10:25:46.180Z,16.58
2019-05-28T10:26:46.149Z,16.32
2019-05-28T10:28:00.399Z,16.01
2019-05-28T10:28:46.117Z,15.77
2019-05-28T10:29:46.109Z,15.68
2019-05-28T10:30:46.088Z,15.65
2019-05-28T10:31:46.119Z,15.57
2019-05-28T10:32:46.066Z,15.17
2019-05-28T10:33:46.049Z,15.09
2019-05-28T10:35:02.727Z,15.04
2019-05-28T10:35:46.039Z,14.99
2019-05-28T10:36:46.025Z,14.92
2019-05-28T10:37:46.009Z,14.75
2019-05-28T10:38:45.995Z,14.58
2019-05-28T10:39:45.980Z,14.54
2019-05-28T10:40:45.973Z,14.30
2019-05-28T10:41:45.950Z,14.26
2019-05-28T10:42:45.934Z,14.19
2019-05-28T10:43:45.896Z,14.15
2019-05-28T10:44:45.896Z,14.11
2019-05-28T10:45:46.001Z,14.11
2019-05-28T10:46:45.861Z,14.14
2019-05-28T10:47:45.878Z,13.89
2019-05-28T10:48:45.824Z,13.82
2019-05-28T10:49:45.809Z,13.72
2019-05-28T10:50:45.790Z,13.61
2019-05-28T10:51:45.772Z,13.75
2019-05-28T10:52:45.868Z,13.75
2019-05-28T10:53:45.741Z,13.74
2019-05-28T10:54:45.726Z,13.82
2019-05-28T10:55:45.706Z,13.77
2019-05-28T10:56:45.691Z,13.69
2019-05-28T10:57:45.675Z,13.59
2019-05-28T10:58:45.658Z,13.52
2019-05-28T10:59:45.646Z,13.64
2019-05-28T11:00:45.625Z,13.71
2019-05-28T11:01:45.614Z,13.75
2019-05-28T11:02:45.594Z,13.81
2019-05-28T11:03:47.171Z,13.92
2019-05-28T11:04:45.612Z,13.97
2019-05-28T11:05:45.548Z,13.86
2019-05-28T11:06:51.772Z,13.84
2019-05-28T11:07:45.519Z,13.75
2019-05-28T11:08:45.497Z,13.93
2019-05-28T11:09:45.488Z,13.84
2019-05-28T11:10:45.470Z,13.86
2019-05-28T11:11:45.450Z,13.89
2019-05-28T11:12:45.439Z,13.93
2019-05-28T11:13:53.048Z,14.00
2019-05-28T11:14:45.401Z,14.23
2019-05-28T11:15:45.391Z,14.26
2019-05-28T11:16:45.370Z,14.55
2019-05-28T11:17:45.371Z,14.73
2019-05-28T11:18:45.345Z,14.75
2019-05-28T11:19:45.326Z,14.73
2019-05-28T11:20:45.315Z,15.00
2019-05-28T11:21:45.298Z,15.13
2019-05-28T11:22:45.286Z,15.31
2019-05-28T11:23:45.272Z,15.19
2019-05-28T11:24:45.254Z,15.31
2019-05-28T11:25:45.235Z,15.24
2019-05-28T11:26:45.227Z,15.47
2019-05-28T11:27:45.210Z,15.58
2019-05-28T11:28:45.195Z,15.71
2019-05-28T11:29:45.182Z,15.79
2019-05-28T11:30:45.168Z,15.91
2019-05-28T11:31:45.148Z,16.07
2019-05-28T11:32:46.442Z,16.16
2019-05-28T11:33:45.122Z,16.21
2019-05-28T11:34:45.109Z,16.45
2019-05-28T11:35:45.095Z,16.49
2019-05-28T11:36:45.080Z,16.68
2019-05-28T11:37:45.068Z,16.83
2019-05-28T11:38:45.053Z,16.73
2019-05-28T11:39:45.040Z,16.89
2019-05-28T11:40:45.030Z,16.97
2019-05-28T11:41:45.013Z,17.01
2019-05-28T11:42:45.005Z,17.08
2019-05-28T11:43:45.069Z,17.33
2019-05-28T11:44:44.975Z,17.71
2019-05-28T11:45:44.969Z,17.72
2019-05-28T11:46:44.967Z,17.83
2019-05-28T11:47:44.945Z,17.98
2019-05-28T11:48:44.929Z,18.20
2019-05-28T11:49:44.923Z,18.26
2019-05-28T11:50:45.018Z,18.34
2019-05-28T11:51:44.927Z,18.37
2019-05-28T11:52:44.930Z,18.63
2019-05-28T11:53:44.878Z,18.96
2019-05-28T11:54:44.864Z,18.85
2019-05-28T11:55:44.851Z,19.07
2019-05-28T11:56:44.840Z,19.19
2019-05-28T11:57:44.846Z,19.16
2019-05-28T11:58:44.855Z,18.99
2019-05-28T11:59:44.816Z,18.84
2019-05-28T12:00:44.802Z,18.92
2019-05-28T12:01:44.789Z,19.00
2019-05-28T12:02:44.777Z,19.14
2019-05-28T12:03:44.766Z,19.31
2019-05-28T12:04:44.761Z,19.15
2019-05-28T12:05:44.762Z,19.16
2019-05-28T12:06:44.738Z,19.39
2019-05-28T12:07:44.726Z,19.47
2019-05-28T12:08:44.734Z,19.51
2019-05-28T12:09:44.712Z,19.58
2019-05-28T12:10:44.694Z,19.47
2019-05-28T12:11:44.684Z,19.30
2019-05-28T12:12:44.675Z,19.12
2019-05-28T12:13:44.665Z,19.27
2019-05-28T12:14:44.662Z,19.29
2019-05-28T12:15:44.647Z,19.41
2019-05-28T12:16:44.650Z,19.27
2019-05-28T12:17:45.656Z,19.18
2019-05-28T12:18:44.613Z,19.02
2019-05-28T12:19:44.600Z,18.80
2019-05-28T12:20:44.588Z,18.71
2019-05-28T12:21:44.576Z,18.93
2019-05-28T12:22:44.564Z,18.71
2019-05-28T12:23:44.556Z,18.56
2019-05-28T12:24:44.545Z,18.66
2019-05-28T12:25:44.529Z,18.77
2019-05-28T12:26:44.524Z,19.15
2019-05-28T12:27:44.507Z,19.25
2019-05-28T12:28:44.519Z,19.27
2019-05-28T12:29:51.911Z,19.15
2019-05-28T12:30:44.514Z,19.16
2019-05-28T12:31:44.466Z,19.11
2019-05-28T12:32:44.463Z,19.21
2019-05-28T12:33:44.444Z,19.34
2019-05-28T12:34:44.433Z,19.58
2019-05-28T12:35:44.422Z,19.59
2019-05-28T12:36:44.412Z,19.69
2019-05-28T12:37:48.623Z,20.10
2019-05-28T12:38:44.389Z,20.72
2019-05-28T12:39:44.379Z,21.00
2019-05-28T12:40:48.253Z,21.12
2019-05-28T12:42:00.810Z,21.06
2019-05-28T12:42:44.351Z,20.98
2019-05-28T12:43:44.341Z,20.98
2019-05-28T12:44:44.331Z,20.91
2019-05-28T12:45:44.318Z,20.99
2019-05-28T12:46:44.319Z,20.85
2019-05-28T12:47:44.297Z,20.77
2019-05-28T12:48:44.293Z,20.81
2019-05-28T12:49:44.282Z,20.70
2019-05-28T12:50:44.266Z,20.48
2019-05-28T12:51:44.257Z,20.59